sensor_id;sensor_type;location;lat;lon;timestamp;pressure;altitude;pressure_sealevel;temperature;humidity
10824;BME280;39116;59.332;18.034;2023-02-28T00:00:10;102139.31;;;1.70;100.00
10824;BME280;39116;59.332;18.034;2023-02-28T00:02:33;102134.47;;;1.61;100.00
10824;BME280;39116;59.332;18.034;2023-02-28T00:04:55;102132.59;;;1.59;100.00
10824;BME280;39116;59.332;18.034;2023-02-28T00:07:22;102143.25;;;1.65;100.00
10824;BME280;39116;59.332;18.034;2023-02-28T00:09:44;102143.09;;;1.62;100.00
10824;BME280;39116;59.332;18.034;2023-02-28T00:12:06;102143.84;;;1.61;100.00
10824;BME280;39116;59.332;18.034;2023-02-28T00:14:35;102149.97;;;1.63;100.00
10824;BME280;39116;59.332;18.034;2023-02-28T00:16:57;102144.84;;;1.63;100.00
10824;BME280;39116;59.332;18.034;2023-02-28T00:19:19;102166.25;;;1.63;100.00
10824;BME280;39116;59.332;18.034;2023-02-28T00:21:41;102046.38;;;0.97;100.00
10824;BME280;39116;59.332;18.034;2023-02-28T00:24:05;102157.56;;;1.61;100.00
10824;BME280;39116;59.332;18.034;2023-02-28T00:26:27;102021.16;;;0.78;100.00
10824;BME280;39116;59.332;18.034;2023-02-28T00:28:51;102158.47;;;1.62;100.00
10824;BME280;39116;59.332;18.034;2023-02-28T00:31:13;102162.41;;;1.57;100.00
10824;BME280;39116;59.332;18.034;2023-02-28T00:33:35;102143.63;;;1.44;100.00
10824;BME280;39116;59.332;18.034;2023-02-28T00:36:05;102137.13;;;1.49;100.00
10824;BME280;39116;59.332;18.034;2023-02-28T00:38:28;102151.94;;;1.53;100.00
10824;BME280;39116;59.332;18.034;2023-02-28T00:40:51;102160.50;;;1.54;100.00
10824;BME280;39116;59.332;18.034;2023-02-28T00:43:13;102154.16;;;1.49;100.00
10824;BME280;39116;59.332;18.034;2023-02-28T00:45:35;102143.28;;;1.40;100.00
10824;BME280;39116;59.332;18.034;2023-02-28T00:47:57;102150.72;;;1.48;100.00
10824;BME280;39116;59.332;18.034;2023-02-28T00:50:20;102122.72;;;1.26;100.00
10824;BME280;39116;59.332;18.034;2023-02-28T00:52:42;102133.34;;;1.44;100.00
10824;BME280;39116;59.332;18.034;2023-02-28T00:55:04;102150.31;;;1.42;100.00
10824;BME280;39116;59.332;18.034;2023-02-28T00:57:28;102145.19;;;1.42;100.00
10824;BME280;39116;59.332;18.034;2023-02-28T00:59:50;102143.63;;;1.44;100.00
10824;BME280;39116;59.332;18.034;2023-02-28T01:02:14;102135.91;;;1.44;100.00
10824;BME280;39116;59.332;18.034;2023-02-28T01:04:36;102135.59;;;1.40;100.00
10824;BME280;39116;59.332;18.034;2023-02-28T01:06:58;102138.25;;;1.41;100.00
10824;BME280;39116;59.332;18.034;2023-02-28T01:09:20;102114.16;;;1.26;100.00
10824;BME280;39116;59.332;18.034;2023-02-28T01:11:43;102112.75;;;1.31;100.00
10824;BME280;39116;59.332;18.034;2023-02-28T01:14:06;102132.97;;;1.51;100.00
10824;BME280;39116;59.332;18.034;2023-02-28T01:16:29;102136.03;;;1.46;100.00
10824;BME280;39116;59.332;18.034;2023-02-28T01:18:51;102125.03;;;1.35;100.00
10824;BME280;39116;59.332;18.034;2023-02-28T01:21:15;102141.63;;;1.40;100.00
10824;BME280;39116;59.332;18.034;2023-02-28T01:23:38;102145.66;;;1.37;100.00
10824;BME280;39116;59.332;18.034;2023-02-28T01:26:04;102145.75;;;1.38;100.00
10824;BME280;39116;59.332;18.034;2023-02-28T01:28:26;102140.09;;;1.30;100.00
10824;BME280;39116;59.332;18.034;2023-02-28T01:30:51;102147.13;;;1.33;100.00
10824;BME280;39116;59.332;18.034;2023-02-28T01:33:14;102137.69;;;1.20;100.00
10824;BME280;39116;59.332;18.034;2023-02-28T01:35:37;102145.50;;;1.22;100.00
10824;BME280;39116;59.332;18.034;2023-02-28T01:37:59;102151.97;;;1.17;100.00
10824;BME280;39116;59.332;18.034;2023-02-28T01:40:22;102143.00;;;1.10;100.00
10824;BME280;39116;59.332;18.034;2023-02-28T01:42:44;102146.22;;;1.07;100.00
10824;BME280;39116;59.332;18.034;2023-02-28T01:45:20;102156.13;;;1.14;100.00
10824;BME280;39116;59.332;18.034;2023-02-28T01:47:48;102152.34;;;1.09;100.00
10824;BME280;39116;59.332;18.034;2023-02-28T01:50:15;102157.41;;;1.08;100.00
10824;BME280;39116;59.332;18.034;2023-02-28T01:52:38;102152.03;;;1.05;100.00
10824;BME280;39116;59.332;18.034;2023-02-28T01:55:02;102161.59;;;1.07;100.00
10824;BME280;39116;59.332;18.034;2023-02-28T01:57:28;102149.13;;;1.12;100.00
10824;BME280;39116;59.332;18.034;2023-02-28T01:59:59;102147.78;;;1.05;100.00
10824;BME280;39116;59.332;18.034;2023-02-28T02:02:23;102145.34;;;1.07;100.00
10824;BME280;39116;59.332;18.034;2023-02-28T02:04:51;102121.00;;;0.88;100.00
10824;BME280;39116;59.332;18.034;2023-02-28T02:07:16;102101.97;;;0.73;100.00
10824;BME280;39116;59.332;18.034;2023-02-28T02:09:38;102105.00;;;0.67;100.00
10824;BME280;39116;59.332;18.034;2023-02-28T02:12:09;102105.78;;;0.66;100.00
10824;BME280;39116;59.332;18.034;2023-02-28T02:14:45;102149.84;;;0.98;100.00
10824;BME280;39116;59.332;18.034;2023-02-28T02:17:19;102121.38;;;0.69;100.00
10824;BME280;39116;59.332;18.034;2023-02-28T02:20:22;102144.25;;;0.91;100.00
10824;BME280;39116;59.332;18.034;2023-02-28T02:23:15;102127.31;;;0.68;100.00
10824;BME280;39116;59.332;18.034;2023-02-28T02:25:45;102143.66;;;0.70;100.00
10824;BME280;39116;59.332;18.034;2023-02-28T02:31:18;102158.59;;;0.76;100.00
10824;BME280;39116;59.332;18.034;2023-02-28T02:36:42;102143.88;;;0.73;100.00
10824;BME280;39116;59.332;18.034;2023-02-28T02:39:14;102130.63;;;0.67;100.00
10824;BME280;39116;59.332;18.034;2023-02-28T02:41:41;102146.53;;;0.75;100.00
10824;BME280;39116;59.332;18.034;2023-02-28T02:44:14;102142.06;;;0.84;100.00
10824;BME280;39116;59.332;18.034;2023-02-28T02:46:42;102143.50;;;0.81;100.00
10824;BME280;39116;59.332;18.034;2023-02-28T02:49:09;102150.38;;;0.68;100.00
10824;BME280;39116;59.332;18.034;2023-02-28T02:51:33;102150.59;;;0.60;100.00
10824;BME280;39116;59.332;18.034;2023-02-28T02:54:02;102149.59;;;0.57;100.00
10824;BME280;39116;59.332;18.034;2023-02-28T02:56:28;102143.22;;;0.64;100.00
10824;BME280;39116;59.332;18.034;2023-02-28T02:58:57;102140.88;;;0.55;100.00
10824;BME280;39116;59.332;18.034;2023-02-28T03:01:22;102148.69;;;0.57;100.00
10824;BME280;39116;59.332;18.034;2023-02-28T03:03:49;102137.03;;;0.49;100.00
10824;BME280;39116;59.332;18.034;2023-02-28T03:06:11;102144.38;;;0.44;100.00
10824;BME280;39116;59.332;18.034;2023-02-28T03:08:35;102145.47;;;0.48;100.00
10824;BME280;39116;59.332;18.034;2023-02-28T03:11:00;102140.25;;;0.46;100.00
10824;BME280;39116;59.332;18.034;2023-02-28T03:13:42;102151.59;;;0.50;100.00
10824;BME280;39116;59.332;18.034;2023-02-28T03:18:56;102116.75;;;0.40;100.00
10824;BME280;39116;59.332;18.034;2023-02-28T03:21:27;102139.94;;;0.42;100.00
10824;BME280;39116;59.332;18.034;2023-02-28T03:23:56;102130.03;;;0.34;100.00
10824;BME280;39116;59.332;18.034;2023-02-28T03:26:26;102134.16;;;0.32;100.00
10824;BME280;39116;59.332;18.034;2023-02-28T03:28:53;102141.50;;;0.40;100.00
10824;BME280;39116;59.332;18.034;2023-02-28T03:31:20;102151.94;;;0.43;100.00
10824;BME280;39116;59.332;18.034;2023-02-28T03:33:45;102143.03;;;0.37;100.00
10824;BME280;39116;59.332;18.034;2023-02-28T03:36:18;102138.25;;;0.30;100.00
10824;BME280;39116;59.332;18.034;2023-02-28T03:38:45;102133.13;;;0.30;100.00
10824;BME280;39116;59.332;18.034;2023-02-28T03:41:12;102144.59;;;0.35;100.00
10824;BME280;39116;59.332;18.034;2023-02-28T03:43:43;102142.84;;;0.34;100.00
10824;BME280;39116;59.332;18.034;2023-02-28T03:46:09;102147.72;;;0.31;100.00
10824;BME280;39116;59.332;18.034;2023-02-28T03:48:35;102139.47;;;0.35;100.00
10824;BME280;39116;59.332;18.034;2023-02-28T03:51:00;102143.28;;;0.29;100.00
10824;BME280;39116;59.332;18.034;2023-02-28T03:53:27;102152.63;;;0.28;100.00
10824;BME280;39116;59.332;18.034;2023-02-28T03:55:55;102160.88;;;0.24;100.00
10824;BME280;39116;59.332;18.034;2023-02-28T03:58:24;102147.06;;;0.22;100.00
10824;BME280;39116;59.332;18.034;2023-02-28T04:00:52;102106.53;;;0.05;100.00
10824;BME280;39116;59.332;18.034;2023-02-28T04:03:17;102136.59;;;0.19;100.00
10824;BME280;39116;59.332;18.034;2023-02-28T04:05:48;102126.38;;;0.07;100.00
10824;BME280;39116;59.332;18.034;2023-02-28T04:08:11;102126.69;;;0.12;100.00
10824;BME280;39116;59.332;18.034;2023-02-28T04:10:33;102131.91;;;0.02;100.00
10824;BME280;39116;59.332;18.034;2023-02-28T04:12:55;102004.34;;;-0.63;100.00
10824;BME280;39116;59.332;18.034;2023-02-28T04:15:17;102113.09;;;0.01;100.00
10824;BME280;39116;59.332;18.034;2023-02-28T04:17:46;102120.34;;;0.07;100.00
10824;BME280;39116;59.332;18.034;2023-02-28T04:20:09;102120.78;;;0.01;100.00
10824;BME280;39116;59.332;18.034;2023-02-28T04:22:32;102130.03;;;-0.01;100.00
10824;BME280;39116;59.332;18.034;2023-02-28T04:24:53;102128.34;;;-0.01;100.00
10824;BME280;39116;59.332;18.034;2023-02-28T04:27:15;102139.06;;;0.06;100.00
10824;BME280;39116;59.332;18.034;2023-02-28T04:29:38;102129.81;;;0.08;100.00
10824;BME280;39116;59.332;18.034;2023-02-28T04:32:00;102137.47;;;-0.04;100.00
10824;BME280;39116;59.332;18.034;2023-02-28T04:34:24;102128.56;;;-0.09;100.00
10824;BME280;39116;59.332;18.034;2023-02-28T04:36:46;102129.34;;;-0.10;100.00
10824;BME280;39116;59.332;18.034;2023-02-28T04:39:09;102113.22;;;-0.21;100.00
10824;BME280;39116;59.332;18.034;2023-02-28T04:41:31;102126.00;;;-0.09;100.00
10824;BME280;39116;59.332;18.034;2023-02-28T04:43:53;102123.66;;;-0.18;100.00
10824;BME280;39116;59.332;18.034;2023-02-28T04:46:16;102131.25;;;-0.20;100.00
10824;BME280;39116;59.332;18.034;2023-02-28T04:48:39;102122.44;;;-0.11;100.00
10824;BME280;39116;59.332;18.034;2023-02-28T04:51:05;102129.00;;;-0.15;100.00
10824;BME280;39116;59.332;18.034;2023-02-28T04:53:28;102136.13;;;-0.11;100.00
10824;BME280;39116;59.332;18.034;2023-02-28T04:55:50;102135.00;;;-0.14;100.00
10824;BME280;39116;59.332;18.034;2023-02-28T04:58:12;102135.69;;;-0.17;100.00
10824;BME280;39116;59.332;18.034;2023-02-28T05:00:34;102143.03;;;-0.10;100.00
10824;BME280;39116;59.332;18.034;2023-02-28T05:02:56;102147.16;;;-0.12;100.00
10824;BME280;39116;59.332;18.034;2023-02-28T05:05:18;102141.03;;;-0.14;100.00
10824;BME280;39116;59.332;18.034;2023-02-28T05:07:41;102142.03;;;-0.12;100.00
10824;BME280;39116;59.332;18.034;2023-02-28T05:10:04;102135.44;;;-0.20;100.00
10824;BME280;39116;59.332;18.034;2023-02-28T05:12:26;102144.84;;;-0.09;100.00
10824;BME280;39116;59.332;18.034;2023-02-28T05:14:48;102150.16;;;-0.17;100.00
10824;BME280;39116;59.332;18.034;2023-02-28T05:17:10;102153.91;;;-0.24;100.00
10824;BME280;39116;59.332;18.034;2023-02-28T05:19:31;102148.91;;;-0.23;100.00
10824;BME280;39116;59.332;18.034;2023-02-28T05:21:54;102162.84;;;-0.19;100.00
10824;BME280;39116;59.332;18.034;2023-02-28T05:24:18;102164.59;;;-0.18;100.00
10824;BME280;39116;59.332;18.034;2023-02-28T05:26:43;102161.03;;;-0.20;100.00
10824;BME280;39116;59.332;18.034;2023-02-28T05:29:05;102154.03;;;-0.23;100.00
10824;BME280;39116;59.332;18.034;2023-02-28T05:31:27;102146.47;;;-0.21;100.00
10824;BME280;39116;59.332;18.034;2023-02-28T05:33:50;102154.59;;;-0.15;100.00
10824;BME280;39116;59.332;18.034;2023-02-28T05:36:12;102169.41;;;-0.11;100.00
10824;BME280;39116;59.332;18.034;2023-02-28T05:38:34;102154.03;;;-0.11;100.00
10824;BME280;39116;59.332;18.034;2023-02-28T05:40:57;102156.16;;;-0.17;100.00
10824;BME280;39116;59.332;18.034;2023-02-28T05:43:19;102154.72;;;-0.13;100.00
10824;BME280;39116;59.332;18.034;2023-02-28T05:45:41;102160.72;;;-0.13;100.00
10824;BME280;39116;59.332;18.034;2023-02-28T05:48:03;102160.16;;;-0.21;100.00
10824;BME280;39116;59.332;18.034;2023-02-28T05:50:25;102169.72;;;-0.18;100.00
10824;BME280;39116;59.332;18.034;2023-02-28T05:52:49;102165.03;;;-0.24;100.00
10824;BME280;39116;59.332;18.034;2023-02-28T05:55:11;102176.28;;;-0.22;100.00
10824;BME280;39116;59.332;18.034;2023-02-28T05:57:34;102148.81;;;-0.24;100.00
10824;BME280;39116;59.332;18.034;2023-02-28T05:59:56;102168.06;;;-0.17;100.00
10824;BME280;39116;59.332;18.034;2023-02-28T06:02:19;102168.19;;;-0.16;100.00
10824;BME280;39116;59.332;18.034;2023-02-28T06:04:41;102147.75;;;-0.50;100.00
10824;BME280;39116;59.332;18.034;2023-02-28T06:07:03;102166.84;;;-0.23;100.00
10824;BME280;39116;59.332;18.034;2023-02-28T06:09:25;102183.06;;;-0.22;100.00
10824;BME280;39116;59.332;18.034;2023-02-28T06:11:47;102177.19;;;-0.21;100.00
10824;BME280;39116;59.332;18.034;2023-02-28T06:14:14;102180.06;;;-0.16;100.00
10824;BME280;39116;59.332;18.034;2023-02-28T06:16:36;102181.75;;;-0.17;100.00
10824;BME280;39116;59.332;18.034;2023-02-28T06:19:00;102192.09;;;-0.15;100.00
10824;BME280;39116;59.332;18.034;2023-02-28T06:21:22;102185.31;;;-0.15;100.00
10824;BME280;39116;59.332;18.034;2023-02-28T06:23:44;102164.91;;;-0.25;100.00
10824;BME280;39116;59.332;18.034;2023-02-28T06:26:06;102187.31;;;-0.11;100.00
10824;BME280;39116;59.332;18.034;2023-02-28T06:28:28;102192.44;;;-0.11;100.00
10824;BME280;39116;59.332;18.034;2023-02-28T06:30:51;102185.22;;;-0.05;100.00
10824;BME280;39116;59.332;18.034;2023-02-28T06:33:13;102202.66;;;-0.11;100.00
10824;BME280;39116;59.332;18.034;2023-02-28T06:35:35;102184.66;;;-0.01;100.00
10824;BME280;39116;59.332;18.034;2023-02-28T06:37:58;102175.78;;;0.06;100.00
10824;BME280;39116;59.332;18.034;2023-02-28T06:40:20;102171.34;;;0.04;100.00
10824;BME280;39116;59.332;18.034;2023-02-28T06:42:42;102177.56;;;0.19;100.00
10824;BME280;39116;59.332;18.034;2023-02-28T06:45:05;102178.34;;;0.30;100.00
10824;BME280;39116;59.332;18.034;2023-02-28T06:47:32;102177.78;;;0.34;100.00
10824;BME280;39116;59.332;18.034;2023-02-28T06:49:54;102177.13;;;0.36;100.00
10824;BME280;39116;59.332;18.034;2023-02-28T06:52:16;102176.34;;;0.37;100.00
10824;BME280;39116;59.332;18.034;2023-02-28T06:54:38;102185.81;;;0.38;100.00
10824;BME280;39116;59.332;18.034;2023-02-28T06:57:00;102188.38;;;0.50;100.00
10824;BME280;39116;59.332;18.034;2023-02-28T06:59:22;102179.03;;;0.51;100.00
10824;BME280;39116;59.332;18.034;2023-02-28T07:01:44;102178.22;;;0.52;100.00
10824;BME280;39116;59.332;18.034;2023-02-28T07:04:08;102178.91;;;0.61;100.00
10824;BME280;39116;59.332;18.034;2023-02-28T07:06:30;102173.97;;;0.64;100.00
10824;BME280;39116;59.332;18.034;2023-02-28T07:08:53;102185.69;;;0.72;100.00
10824;BME280;39116;59.332;18.034;2023-02-28T07:11:15;102192.69;;;0.75;100.00
10824;BME280;39116;59.332;18.034;2023-02-28T07:13:37;102183.00;;;0.83;100.00
10824;BME280;39116;59.332;18.034;2023-02-28T07:16:01;102196.56;;;0.82;100.00
10824;BME280;39116;59.332;18.034;2023-02-28T07:18:24;102179.06;;;0.88;100.00
10824;BME280;39116;59.332;18.034;2023-02-28T07:20:47;102194.44;;;0.88;100.00
10824;BME280;39116;59.332;18.034;2023-02-28T07:23:09;102188.75;;;0.92;100.00
10824;BME280;39116;59.332;18.034;2023-02-28T07:25:31;102187.59;;;1.00;100.00
10824;BME280;39116;59.332;18.034;2023-02-28T07:27:53;102184.28;;;1.01;100.00
10824;BME280;39116;59.332;18.034;2023-02-28T07:30:16;102182.69;;;1.03;100.00
10824;BME280;39116;59.332;18.034;2023-02-28T07:32:39;102176.34;;;1.10;100.00
10824;BME280;39116;59.332;18.034;2023-02-28T07:35:01;102183.66;;;1.17;100.00
10824;BME280;39116;59.332;18.034;2023-02-28T07:37:24;102186.53;;;1.22;100.00
10824;BME280;39116;59.332;18.034;2023-02-28T07:39:46;102173.34;;;1.29;100.00
10824;BME280;39116;59.332;18.034;2023-02-28T07:42:08;102179.56;;;1.32;100.00
10824;BME280;39116;59.332;18.034;2023-02-28T07:44:32;102174.56;;;1.34;100.00
10824;BME280;39116;59.332;18.034;2023-02-28T07:46:54;102166.59;;;1.43;100.00
10824;BME280;39116;59.332;18.034;2023-02-28T07:49:18;102171.84;;;1.44;100.00
10824;BME280;39116;59.332;18.034;2023-02-28T07:51:40;102165.50;;;1.39;100.00
10824;BME280;39116;59.332;18.034;2023-02-28T07:54:04;102163.50;;;1.60;100.00
10824;BME280;39116;59.332;18.034;2023-02-28T07:56:26;102168.53;;;1.59;100.00
10824;BME280;39116;59.332;18.034;2023-02-28T07:58:48;102040.06;;;0.92;100.00
10824;BME280;39116;59.332;18.034;2023-02-28T08:01:11;102163.41;;;1.72;100.00
10824;BME280;39116;59.332;18.034;2023-02-28T08:03:33;102172.69;;;1.70;100.00
10824;BME280;39116;59.332;18.034;2023-02-28T08:05:55;102166.63;;;1.81;100.00
10824;BME280;39116;59.332;18.034;2023-02-28T08:08:17;102159.53;;;1.90;100.00
10824;BME280;39116;59.332;18.034;2023-02-28T08:10:41;102122.97;;;1.81;100.00
10824;BME280;39116;59.332;18.034;2023-02-28T08:13:03;102154.19;;;2.01;100.00
10824;BME280;39116;59.332;18.034;2023-02-28T08:15:25;102141.75;;;2.07;100.00
10824;BME280;39116;59.332;18.034;2023-02-28T08:17:47;102136.03;;;2.11;100.00
10824;BME280;39116;59.332;18.034;2023-02-28T08:20:10;102155.56;;;2.22;100.00
10824;BME280;39116;59.332;18.034;2023-02-28T08:22:32;102139.75;;;2.29;100.00
10824;BME280;39116;59.332;18.034;2023-02-28T08:24:54;102148.28;;;2.28;100.00
10824;BME280;39116;59.332;18.034;2023-02-28T08:27:18;102148.47;;;2.45;100.00
10824;BME280;39116;59.332;18.034;2023-02-28T08:29:40;102155.41;;;2.46;100.00
10824;BME280;39116;59.332;18.034;2023-02-28T08:32:01;102130.88;;;2.38;100.00
10824;BME280;39116;59.332;18.034;2023-02-28T08:34:23;102147.88;;;2.49;100.00
10824;BME280;39116;59.332;18.034;2023-02-28T08:36:45;102149.25;;;2.57;100.00
10824;BME280;39116;59.332;18.034;2023-02-28T08:39:08;102153.97;;;2.51;100.00
10824;BME280;39116;59.332;18.034;2023-02-28T08:41:30;102147.06;;;2.63;100.00
10824;BME280;39116;59.332;18.034;2023-02-28T08:43:54;102143.41;;;2.60;100.00
10824;BME280;39116;59.332;18.034;2023-02-28T08:46:16;102141.34;;;2.67;100.00
10824;BME280;39116;59.332;18.034;2023-02-28T08:48:38;102139.91;;;2.73;100.00
10824;BME280;39116;59.332;18.034;2023-02-28T08:51:02;102141.69;;;2.74;100.00
10824;BME280;39116;59.332;18.034;2023-02-28T08:53:25;102137.13;;;2.83;100.00
10824;BME280;39116;59.332;18.034;2023-02-28T08:55:47;102132.84;;;2.83;100.00
10824;BME280;39116;59.332;18.034;2023-02-28T08:58:09;102133.78;;;2.84;100.00
10824;BME280;39116;59.332;18.034;2023-02-28T09:00:32;102138.97;;;2.99;100.00
10824;BME280;39116;59.332;18.034;2023-02-28T09:02:54;102117.31;;;2.95;100.00
10824;BME280;39116;59.332;18.034;2023-02-28T09:05:16;102138.84;;;3.11;100.00
10824;BME280;39116;59.332;18.034;2023-02-28T09:07:38;102123.31;;;3.24;100.00
10824;BME280;39116;59.332;18.034;2023-02-28T09:10:00;102132.75;;;3.23;100.00
10824;BME280;39116;59.332;18.034;2023-02-28T09:12:22;102119.88;;;3.38;100.00
10824;BME280;39116;59.332;18.034;2023-02-28T09:14:45;102119.47;;;3.46;100.00
10824;BME280;39116;59.332;18.034;2023-02-28T09:17:08;102115.63;;;3.39;100.00
10824;BME280;39116;59.332;18.034;2023-02-28T09:19:31;101989.88;;;2.72;100.00
10824;BME280;39116;59.332;18.034;2023-02-28T09:21:53;102133.22;;;3.46;100.00
10824;BME280;39116;59.332;18.034;2023-02-28T09:24:15;102108.03;;;3.55;100.00
10824;BME280;39116;59.332;18.034;2023-02-28T09:26:37;102081.75;;;3.61;100.00
10824;BME280;39116;59.332;18.034;2023-02-28T09:28:59;102094.25;;;3.55;100.00
10824;BME280;39116;59.332;18.034;2023-02-28T09:31:24;102093.97;;;3.80;100.00
10824;BME280;39116;59.332;18.034;2023-02-28T09:33:48;102094.25;;;3.85;100.00
10824;BME280;39116;59.332;18.034;2023-02-28T09:36:11;102086.72;;;3.88;100.00
10824;BME280;39116;59.332;18.034;2023-02-28T09:38:34;102091.00;;;4.04;100.00
10824;BME280;39116;59.332;18.034;2023-02-28T09:40:58;102089.06;;;3.99;100.00
10824;BME280;39116;59.332;18.034;2023-02-28T09:43:25;102092.25;;;4.10;100.00
10824;BME280;39116;59.332;18.034;2023-02-28T09:45:51;102083.63;;;4.10;100.00
10824;BME280;39116;59.332;18.034;2023-02-28T09:48:28;102091.88;;;4.19;100.00
10824;BME280;39116;59.332;18.034;2023-02-28T09:51:00;102087.44;;;4.48;100.00
10824;BME280;39116;59.332;18.034;2023-02-28T09:53:30;102086.38;;;4.44;100.00
10824;BME280;39116;59.332;18.034;2023-02-28T09:55:57;102076.91;;;4.28;100.00
10824;BME280;39116;59.332;18.034;2023-02-28T09:58:23;102050.50;;;4.32;100.00
10824;BME280;39116;59.332;18.034;2023-02-28T10:00:54;102078.66;;;4.44;100.00
10824;BME280;39116;59.332;18.034;2023-02-28T10:03:32;102074.94;;;4.55;100.00
10824;BME280;39116;59.332;18.034;2023-02-28T10:06:01;102056.34;;;4.61;100.00
10824;BME280;39116;59.332;18.034;2023-02-28T10:08:29;102074.81;;;4.69;100.00
10824;BME280;39116;59.332;18.034;2023-02-28T10:10:56;102079.03;;;4.67;100.00
10824;BME280;39116;59.332;18.034;2023-02-28T10:13:23;102083.53;;;4.87;100.00
10824;BME280;39116;59.332;18.034;2023-02-28T10:15:50;102092.41;;;4.92;100.00
10824;BME280;39116;59.332;18.034;2023-02-28T10:18:15;102093.84;;;4.87;100.00
10824;BME280;39116;59.332;18.034;2023-02-28T10:20:40;102089.44;;;5.01;100.00
10824;BME280;39116;59.332;18.034;2023-02-28T10:23:09;102106.84;;;5.05;100.00
10824;BME280;39116;59.332;18.034;2023-02-28T10:25:34;102110.78;;;5.15;100.00
10824;BME280;39116;59.332;18.034;2023-02-28T10:28:01;102115.31;;;5.19;100.00
10824;BME280;39116;59.332;18.034;2023-02-28T10:30:23;102114.41;;;5.02;100.00
10824;BME280;39116;59.332;18.034;2023-02-28T10:32:49;102112.31;;;4.95;100.00
10824;BME280;39116;59.332;18.034;2023-02-28T10:35:16;102120.16;;;4.96;100.00
10824;BME280;39116;59.332;18.034;2023-02-28T10:37:39;102107.09;;;5.10;100.00
10824;BME280;39116;59.332;18.034;2023-02-28T10:40:03;102114.50;;;5.04;100.00
10824;BME280;39116;59.332;18.034;2023-02-28T10:42:27;102108.94;;;4.96;100.00
10824;BME280;39116;59.332;18.034;2023-02-28T10:44:49;102119.50;;;5.17;100.00
10824;BME280;39116;59.332;18.034;2023-02-28T10:47:26;102112.09;;;5.07;100.00
10824;BME280;39116;59.332;18.034;2023-02-28T10:49:49;102097.88;;;4.98;100.00
10824;BME280;39116;59.332;18.034;2023-02-28T10:52:12;102091.28;;;5.04;100.00
10824;BME280;39116;59.332;18.034;2023-02-28T10:54:35;102097.56;;;5.09;100.00
10824;BME280;39116;59.332;18.034;2023-02-28T10:57:19;102101.50;;;5.19;100.00
10824;BME280;39116;59.332;18.034;2023-02-28T10:59:42;102094.66;;;5.19;100.00
10824;BME280;39116;59.332;18.034;2023-02-28T11:02:30;102097.22;;;5.35;100.00
10824;BME280;39116;59.332;18.034;2023-02-28T11:04:52;102095.44;;;5.18;100.00
10824;BME280;39116;59.332;18.034;2023-02-28T11:07:18;102101.59;;;5.37;100.00
10824;BME280;39116;59.332;18.034;2023-02-28T11:09:40;102090.63;;;5.24;100.00
10824;BME280;39116;59.332;18.034;2023-02-28T11:12:06;102108.03;;;5.28;100.00
10824;BME280;39116;59.332;18.034;2023-02-28T11:14:33;102101.72;;;5.40;100.00
10824;BME280;39116;59.332;18.034;2023-02-28T11:17:11;102094.94;;;5.42;100.00
10824;BME280;39116;59.332;18.034;2023-02-28T11:19:38;102105.63;;;5.31;100.00
10824;BME280;39116;59.332;18.034;2023-02-28T11:22:03;102082.22;;;5.28;100.00
10824;BME280;39116;59.332;18.034;2023-02-28T11:24:28;102091.34;;;5.56;100.00
10824;BME280;39116;59.332;18.034;2023-02-28T11:26:51;102081.53;;;5.49;100.00
10824;BME280;39116;59.332;18.034;2023-02-28T11:29:19;102088.25;;;5.63;100.00
10824;BME280;39116;59.332;18.034;2023-02-28T11:31:42;102098.69;;;5.65;100.00
10824;BME280;39116;59.332;18.034;2023-02-28T11:34:24;102098.09;;;5.88;100.00
10824;BME280;39116;59.332;18.034;2023-02-28T11:36:48;102100.50;;;5.84;100.00
10824;BME280;39116;59.332;18.034;2023-02-28T11:39:11;102104.66;;;5.98;100.00
10824;BME280;39116;59.332;18.034;2023-02-28T11:41:44;102087.72;;;5.87;100.00
10824;BME280;39116;59.332;18.034;2023-02-28T11:44:32;102090.59;;;5.93;100.00
10824;BME280;39116;59.332;18.034;2023-02-28T11:47:05;102084.16;;;6.01;100.00
10824;BME280;39116;59.332;18.034;2023-02-28T11:49:34;102090.25;;;6.21;100.00
10824;BME280;39116;59.332;18.034;2023-02-28T11:52:01;102086.63;;;6.36;100.00
10824;BME280;39116;59.332;18.034;2023-02-28T11:54:33;101982.50;;;5.66;100.00
10824;BME280;39116;59.332;18.034;2023-02-28T11:57:00;102077.94;;;6.16;100.00
10824;BME280;39116;59.332;18.034;2023-02-28T11:59:48;102059.53;;;6.09;100.00
10824;BME280;39116;59.332;18.034;2023-02-28T12:02:26;102064.94;;;5.96;100.00
10824;BME280;39116;59.332;18.034;2023-02-28T12:05:01;102065.53;;;6.08;100.00
10824;BME280;39116;59.332;18.034;2023-02-28T12:07:33;102053.56;;;6.10;100.00
10824;BME280;39116;59.332;18.034;2023-02-28T12:10:02;102061.69;;;6.00;100.00
10824;BME280;39116;59.332;18.034;2023-02-28T12:12:38;102064.84;;;6.13;100.00
10824;BME280;39116;59.332;18.034;2023-02-28T12:15:23;102060.91;;;6.21;100.00
10824;BME280;39116;59.332;18.034;2023-02-28T12:18:03;102056.72;;;6.23;100.00
10824;BME280;39116;59.332;18.034;2023-02-28T12:20:34;102053.81;;;6.35;100.00
10824;BME280;39116;59.332;18.034;2023-02-28T12:23:10;102055.00;;;6.41;100.00
10824;BME280;39116;59.332;18.034;2023-02-28T12:25:52;102058.78;;;6.49;100.00
10824;BME280;39116;59.332;18.034;2023-02-28T12:28:20;102058.25;;;6.37;100.00
10824;BME280;39116;59.332;18.034;2023-02-28T12:30:54;102056.56;;;6.57;100.00
10824;BME280;39116;59.332;18.034;2023-02-28T12:33:22;102059.97;;;6.56;100.00
10824;BME280;39116;59.332;18.034;2023-02-28T12:35:49;102047.09;;;6.58;100.00